Time;durP1;ratioP1;P1;durP2;ratioP2;P2;SDS_P1;SDS_P2;PMS_P1;PMS_P2;Temp;Humidity;BMP_temperature;BMP_pressure;BME280_temperature;BME280_humidity;BME280_pressure;Samples;Min_cycle;Max_cycle;Signal;HPM_P1;HPM_P2
2022/09/18 00:00:05;;;;;;;7.95;7.15;;;24.10;57.70;;;;;;4797330;54;21523;-27
2022/09/18 00:05:07;;;;;;;8.25;7.35;;;24.10;57.70;;;;;;4810769;54;21469;-32
2022/09/18 00:10:08;;;;;;;8.23;7.43;;;24.10;57.70;;;;;;4848017;54;21474;-30
2022/09/18 00:15:09;;;;;;;8.25;7.37;;;24.10;57.80;;;;;;4796452;54;21063;-27
2022/09/18 00:20:10;;;;;;;8.35;7.43;;;24.10;57.80;;;;;;4802348;54;21027;-28
2022/09/18 00:25:14;;;;;;;8.40;7.60;;;24.10;57.70;;;;;;4848753;54;21012;-29
2022/09/18 00:30:15;;;;;;;7.37;6.68;;;24.10;57.70;;;;;;4855501;54;21050;-31
2022/09/18 00:35:16;;;;;;;7.80;7.05;;;24.00;57.70;;;;;;4795380;55;21071;-32
2022/09/18 00:40:17;;;;;;;7.85;7.12;;;24.00;58.00;;;;;;4795654;54;21497;-29
2022/09/18 00:45:18;;;;;;;8.20;7.12;;;24.00;57.70;;;;;;4813353;54;21087;-33
2022/09/18 00:50:24;;;;;;;8.48;7.50;;;24.00;57.70;;;;;;4801068;54;21549;-30
2022/09/18 00:55:32;;;;;;;7.70;6.90;;;24.00;57.70;;;;;;4838347;54;21016;-30
2022/09/18 01:00:33;;;;;;;7.57;6.78;;;24.00;57.70;;;;;;4838623;54;21071;-31
2022/09/18 01:08:30;;;;;;;7.45;6.72;;;24.00;57.70;;;;;;4796152;54;20992;-26
2022/09/18 01:14:08;;;;;;;7.85;6.85;;;24.00;57.70;;;;;;4847407;54;21107;-26
2022/09/18 01:22:29;;;;;;;7.68;6.80;;;24.00;57.70;;;;;;4827914;54;21056;-27
2022/09/18 01:27:51;;;;;;;7.37;6.68;;;24.00;57.70;;;;;;4804157;54;21546;-28
2022/09/18 01:33:05;;;;;;;7.95;6.53;;;24.00;57.70;;;;;;4806125;54;20972;-30
2022/09/18 01:38:15;;;;;;;7.20;6.10;;;24.00;57.70;;;;;;4801163;54;20984;-28
2022/09/18 01:43:19;;;;;;;7.35;6.65;;;24.00;57.70;;;;;;4804598;54;21004;-33
2022/09/18 01:48:29;;;;;;;7.60;6.60;;;24.00;57.70;;;;;;4799178;54;20996;-30
2022/09/18 01:53:36;;;;;;;7.12;6.43;;;24.00;57.70;;;;;;4808785;54;21055;-32
2022/09/18 01:58:37;;;;;;;6.78;6.12;;;24.00;57.70;;;;;;4836886;54;21071;-27
2022/09/18 02:03:44;;;;;;;7.78;6.97;;;24.00;57.70;;;;;;4801057;54;21067;-28
2022/09/18 02:08:55;;;;;;;7.20;6.45;;;24.00;57.70;;;;;;4799681;54;21473;-28
2022/09/18 02:14:09;;;;;;;7.20;6.50;;;24.00;57.70;;;;;;4825429;54;21067;-30
2022/09/18 02:20:00;;;;;;;6.97;6.28;;;24.00;57.70;;;;;;4821540;54;21106;-32
2022/09/18 02:25:05;;;;;;;8.68;6.55;;;24.00;57.70;;;;;;4822684;54;21020;-28
2022/09/18 02:30:08;;;;;;;7.25;6.30;;;24.00;57.60;;;;;;4811946;54;21019;-31
2022/09/18 02:35:10;;;;;;;8.02;6.60;;;23.90;57.60;;;;;;4795685;55;21589;-27
2022/09/18 02:42:01;;;;;;;7.03;6.32;;;23.90;57.50;;;;;;4887602;54;20987;-26
2022/09/18 02:47:43;;;;;;;8.57;6.95;;;23.90;57.60;;;;;;4827698;54;21000;-27
2022/09/18 02:53:02;;;;;;;7.55;6.60;;;24.00;57.60;;;;;;4803411;54;21087;-29
2022/09/18 02:58:09;;;;;;;7.78;6.80;;;23.90;57.50;;;;;;4795278;58;21083;-35
2022/09/18 03:03:16;;;;;;;6.95;6.03;;;23.90;57.60;;;;;;4808992;54;21064;-29
2022/09/18 03:08:18;;;;;;;7.30;6.32;;;23.90;57.60;;;;;;4807635;54;21502;-32
2022/09/18 03:13:19;;;;;;;7.87;6.47;;;23.90;57.50;;;;;;4794981;55;21580;-31
2022/09/18 03:18:20;;;;;;;7.45;6.15;;;23.90;57.50;;;;;;4794742;58;21648;-30
2022/09/18 03:23:22;;;;;;;7.30;6.60;;;23.90;57.60;;;;;;4795003;58;21099;-31
2022/09/18 03:28:23;;;;;;;7.97;6.37;;;23.90;57.60;;;;;;4805524;54;21482;-29
2022/09/18 03:33:24;;;;;;;7.68;6.87;;;23.90;57.60;;;;;;4830031;54;21040;-27
2022/09/18 03:38:25;;;;;;;7.65;6.68;;;23.90;57.50;;;;;;4805637;54;21079;-29
2022/09/18 03:43:26;;;;;;;7.68;6.47;;;23.90;57.60;;;;;;4805683;54;21040;-28
2022/09/18 03:48:27;;;;;;;7.95;6.65;;;23.90;57.50;;;;;;4795056;58;21095;-30
2022/09/18 03:53:28;;;;;;;9.60;6.87;;;23.90;57.50;;;;;;4806966;54;21412;-34
2022/09/18 03:58:28;;;;;;;7.93;6.72;;;23.90;57.50;;;;;;4794461;55;21055;-30
2022/09/18 04:03:29;;;;;;;8.27;6.85;;;23.90;57.50;;;;;;4795444;58;21004;-33
2022/09/18 04:08:30;;;;;;;9.38;6.95;;;23.90;57.50;;;;;;4807884;54;21068;-34
2022/09/18 04:13:32;;;;;;;7.97;6.70;;;23.80;57.40;;;;;;4805907;54;21008;-31
2022/09/18 04:18:33;;;;;;;8.75;6.87;;;23.90;57.40;;;;;;4794611;58;21148;-31
2022/09/18 04:23:33;;;;;;;7.93;7.05;;;23.80;57.40;;;;;;4817928;54;21008;-33
2022/09/18 04:28:36;;;;;;;7.82;7.00;;;23.90;57.40;;;;;;4801031;54;21088;-30
2022/09/18 04:33:36;;;;;;;9.88;7.30;;;23.80;57.40;;;;;;4819298;54;21194;-36
2022/09/18 04:38:38;;;;;;;9.13;7.32;;;23.80;57.30;;;;;;4833482;54;21060;-35
2022/09/18 04:43:39;;;;;;;9.38;7.15;;;23.80;57.30;;;;;;4806858;54;21517;-35
2022/09/18 04:48:40;;;;;;;8.65;6.90;;;23.80;57.40;;;;;;4807750;54;21027;-32
2022/09/18 04:53:41;;;;;;;8.80;7.47;;;23.80;57.30;;;;;;4806313;54;21031;-31
2022/09/18 04:58:41;;;;;;;9.73;7.75;;;23.80;57.30;;;;;;4803911;54;21016;-33
2022/09/18 05:03:42;;;;;;;9.57;7.85;;;23.80;57.30;;;;;;4833832;54;21024;-33
2022/09/18 05:08:43;;;;;;;9.10;7.53;;;23.80;57.30;;;;;;4809352;54;21019;-28
2022/09/18 05:13:47;;;;;;;8.63;7.37;;;23.80;57.30;;;;;;4806045;54;21109;-28
2022/09/18 05:18:49;;;;;;;10.50;7.93;;;23.80;57.30;;;;;;4795218;58;21146;-27
2022/09/18 05:23:50;;;;;;;10.95;8.57;;;23.80;57.30;;;;;;4796020;58;21071;-28
2022/09/18 05:28:51;;;;;;;9.82;7.72;;;23.80;57.30;;;;;;4798992;54;21506;-32
2022/09/18 05:33:52;;;;;;;10.52;8.07;;;23.80;57.30;;;;;;4804330;54;21052;-31
2022/09/18 05:38:52;;;;;;;11.10;8.13;;;23.80;57.20;;;;;;4804198;54;21004;-28
2022/09/18 05:43:54;;;;;;;10.75;8.43;;;23.80;57.30;;;;;;4805474;54;21071;-26
2022/09/18 05:48:55;;;;;;;11.05;8.35;;;23.80;57.20;;;;;;4808991;54;21569;-28
2022/09/18 05:53:55;;;;;;;9.93;8.02;;;23.80;57.40;;;;;;4806051;54;21088;-29
2022/09/18 05:58:56;;;;;;;9.48;8.23;;;23.80;57.20;;;;;;4799829;54;21011;-34
2022/09/18 06:03:58;;;;;;;10.20;8.25;;;23.80;57.20;;;;;;4798019;54;21541;-28
2022/09/18 06:08:59;;;;;;;11.65;8.10;;;23.80;57.10;;;;;;4795663;58;21486;-30
2022/09/18 06:14:00;;;;;;;10.05;8.90;;;23.80;57.20;;;;;;4806345;54;21008;-27
2022/09/18 06:19:01;;;;;;;11.38;9.13;;;23.80;57.10;;;;;;4806104;54;21008;-31
2022/09/18 06:24:01;;;;;;;10.80;9.02;;;23.80;57.10;;;;;;4810435;54;21000;-29
2022/09/18 06:29:02;;;;;;;11.00;8.20;;;23.80;57.10;;;;;;4808758;54;21063;-27
2022/09/18 06:34:03;;;;;;;12.68;8.60;;;23.80;57.10;;;;;;4819017;54;21047;-29
2022/09/18 06:39:04;;;;;;;11.27;9.25;;;23.80;57.10;;;;;;4834931;54;21505;-32
2022/09/18 06:44:05;;;;;;;11.80;9.68;;;23.70;57.10;;;;;;4795274;58;21008;-32
2022/09/18 06:49:05;;;;;;;10.45;8.52;;;23.70;57.00;;;;;;4823038;54;21008;-31
2022/09/18 06:54:06;;;;;;;11.43;8.73;;;23.70;57.10;;;;;;4811360;54;21036;-28
2022/09/18 06:59:07;;;;;;;11.82;9.32;;;23.70;57.00;;;;;;4829882;54;21036;-35
2022/09/18 07:04:08;;;;;;;11.48;8.82;;;23.70;56.80;;;;;;4809535;54;21555;-28
2022/09/18 07:09:09;;;;;;;10.43;9.27;;;23.70;57.00;;;;;;4811330;54;21087;-29
2022/09/18 07:14:09;;;;;;;10.98;9.18;;;23.80;57.00;;;;;;4804897;54;21019;-33
2022/09/18 07:19:10;;;;;;;11.20;8.82;;;23.70;56.90;;;;;;4821297;54;21098;-30
2022/09/18 07:24:11;;;;;;;10.45;8.88;;;23.70;56.80;;;;;;4813061;54;21458;-32
2022/09/18 07:29:12;;;;;;;11.20;8.95;;;23.70;57.30;;;;;;4803370;54;21019;-25
2022/09/18 07:34:13;;;;;;;10.20;8.65;;;23.70;56.80;;;;;;4813341;54;21043;-28
2022/09/18 07:39:14;;;;;;;11.55;9.32;;;23.70;56.80;;;;;;4813435;54;21734;-28
2022/09/18 07:44:14;;;;;;;10.95;9.15;;;23.70;56.80;;;;;;4832722;54;22237;-28
2022/09/18 07:49:15;;;;;;;10.75;9.13;;;23.70;56.90;;;;;;4813064;54;21486;-27
2022/09/18 07:54:16;;;;;;;10.77;8.48;;;23.70;57.30;;;;;;4794597;58;21041;-28
2022/09/18 07:59:17;;;;;;;10.93;8.77;;;23.70;56.70;;;;;;4828857;54;21016;-31
2022/09/18 08:04:18;;;;;;;11.15;9.20;;;23.70;56.70;;;;;;4819038;54;21470;-27
2022/09/18 08:09:19;;;;;;;10.57;8.85;;;23.70;56.70;;;;;;4868180;54;21513;-28
2022/09/18 08:14:20;;;;;;;11.27;9.35;;;23.70;56.70;;;;;;4823375;54;21059;-27
2022/09/18 08:19:21;;;;;;;10.82;9.15;;;23.70;56.70;;;;;;4800288;54;21008;-26
2022/09/18 08:24:21;;;;;;;11.90;9.48;;;23.70;56.70;;;;;;4811271;54;21101;-31
2022/09/18 08:29:22;;;;;;;11.05;9.50;;;23.70;56.70;;;;;;4818716;54;21933;-27
2022/09/18 08:34:23;;;;;;;12.10;10.00;;;23.80;56.80;;;;;;4801952;54;21004;-27
2022/09/18 08:39:24;;;;;;;10.73;9.38;;;23.70;56.80;;;;;;4801861;54;21075;-26
2022/09/18 08:44:28;;;;;;;11.98;10.00;;;23.70;56.70;;;;;;4795259;58;21059;-26
2022/09/18 08:49:48;;;;;;;12.07;9.85;;;23.70;56.70;;;;;;4797529;54;20995;-29
2022/09/18 08:55:35;;;;;;;11.38;8.85;;;23.70;56.80;;;;;;4809032;54;21031;-30
2022/09/18 09:00:47;;;;;;;11.27;9.38;;;23.70;56.80;;;;;;4800561;54;21028;-27
2022/09/18 09:07:39;;;;;;;10.98;9.23;;;23.70;56.80;;;;;;4818853;54;21094;-29
2022/09/18 09:14:37;;;;;;;11.60;9.73;;;23.70;56.80;;;;;;4821614;54;21498;-27
2022/09/18 09:19:48;;;;;;;12.18;9.90;;;23.70;56.80;;;;;;4794946;58;21019;-31
2022/09/18 09:26:42;;;;;;;13.30;10.25;;;23.70;56.80;;;;;;4819950;54;21020;-30
2022/09/18 09:31:47;;;;;;;14.85;10.88;;;23.70;56.90;;;;;;4870437;54;21075;-27
2022/09/18 09:36:51;;;;;;;14.23;10.73;;;23.70;56.80;;;;;;4837177;54;21004;-28
2022/09/18 09:42:20;;;;;;;12.82;10.15;;;23.70;56.80;;;;;;4824276;54;21011;-28
2022/09/18 09:47:51;;;;;;;11.35;9.95;;;23.70;56.60;;;;;;4824156;54;21624;-29
2022/09/18 09:52:56;;;;;;;15.25;10.65;;;23.70;56.70;;;;;;4834124;54;21002;-31
2022/09/18 09:59:37;;;;;;;14.18;10.93;;;23.70;56.70;;;;;;4803115;54;21008;-28
2022/09/18 10:05:03;;;;;;;13.13;10.55;;;23.70;56.60;;;;;;4809562;54;21517;-29
2022/09/18 10:10:53;;;;;;;13.30;10.95;;;23.70;56.60;;;;;;4811037;54;21051;-31
2022/09/18 10:16:33;;;;;;;15.02;11.27;;;23.70;56.50;;;;;;4804425;54;21098;-27
2022/09/18 10:21:36;;;;;;;15.00;11.77;;;23.70;56.50;;;;;;4829755;54;21003;-29
2022/09/18 10:26:46;;;;;;;15.40;11.30;;;23.70;56.50;;;;;;4795984;55;21011;-28
2022/09/18 10:31:49;;;;;;;16.52;12.25;;;23.70;56.60;;;;;;4801553;54;20984;-28
2022/09/18 10:36:50;;;;;;;15.20;11.68;;;23.70;56.60;;;;;;4795480;55;21067;-27
2022/09/18 10:41:55;;;;;;;14.02;11.12;;;23.70;56.50;;;;;;4794805;55;21008;-30
2022/09/18 10:47:18;;;;;;;14.60;11.30;;;23.70;56.40;;;;;;4817153;54;21031;-27
2022/09/18 10:59:30;;;;;;;15.48;11.07;;;23.70;56.40;;;;;;4845704;54;21028;-29
2022/09/18 11:04:32;;;;;;;14.02;11.48;;;23.70;56.40;;;;;;4823382;54;20992;-35
2022/09/18 11:09:37;;;;;;;16.52;12.20;;;23.70;56.30;;;;;;4804177;54;21072;-29
2022/09/18 11:14:42;;;;;;;14.40;11.73;;;23.70;56.40;;;;;;4823385;54;21142;-27
2022/09/18 11:19:50;;;;;;;15.82;12.10;;;23.70;56.30;;;;;;4815455;54;21090;-26
2022/09/18 11:25:27;;;;;;;15.65;12.18;;;23.70;56.30;;;;;;4795082;58;21537;-34
2022/09/18 11:30:34;;;;;;;15.93;12.30;;;23.70;56.30;;;;;;4795367;58;21091;-27
2022/09/18 11:35:44;;;;;;;16.27;12.85;;;23.70;56.20;;;;;;4814109;54;21028;-30
2022/09/18 11:40:54;;;;;;;16.95;12.73;;;23.70;56.20;;;;;;4824806;54;21135;-29
2022/09/18 11:46:30;;;;;;;16.65;13.25;;;23.70;56.20;;;;;;4804793;54;21083;-28
2022/09/18 11:53:09;;;;;;;16.35;12.95;;;23.70;56.10;;;;;;4795789;58;21028;-29
2022/09/18 11:58:38;;;;;;;15.35;12.70;;;23.70;56.10;;;;;;4955157;54;21055;-28
2022/09/18 12:03:48;;;;;;;18.12;14.05;;;23.70;56.00;;;;;;4808007;54;21099;-27
2022/09/18 12:09:26;;;;;;;16.85;12.88;;;23.70;56.10;;;;;;4848798;54;21554;-27
2022/09/18 12:14:43;;;;;;;18.62;13.68;;;23.70;56.10;;;;;;4842907;54;21035;-30
2022/09/18 12:19:58;;;;;;;18.95;14.10;;;23.70;56.10;;;;;;4804626;54;20999;-26
2022/09/18 12:24:59;;;;;;;17.00;13.23;;;23.70;56.00;;;;;;4814089;54;21557;-31
2022/09/18 12:30:11;;;;;;;17.45;13.70;;;23.70;56.00;;;;;;4837200;54;21114;-28
2022/09/18 12:39:01;;;;;;;18.27;14.43;;;23.70;55.80;;;;;;4806812;54;21361;-30
2022/09/18 12:44:29;;;;;;;17.67;14.27;;;23.70;55.90;;;;;;4799913;54;21067;-29
2022/09/18 12:52:08;;;;;;;16.70;13.57;;;23.70;55.70;;;;;;4818544;54;21012;-32
2022/09/18 13:00:43;;;;;;;19.17;14.15;;;23.70;55.60;;;;;;4795506;58;21044;-27
2022/09/18 13:05:59;;;;;;;;;;;23.70;55.60;;;;;;4801070;54;21429;-28
2022/09/18 13:11:04;;;;;;;20.20;14.40;;;23.70;55.50;;;;;;4808220;54;20134;-32
2022/09/18 13:16:26;;;;;;;17.67;13.62;;;23.60;55.40;;;;;;4797827;54;20969;-29
2022/09/18 13:21:43;;;;;;;18.58;13.70;;;23.70;55.40;;;;;;4818328;54;21076;-27
2022/09/18 13:26:46;;;;;;;;;;;23.70;55.30;;;;;;4801724;54;21052;-26
2022/09/18 13:31:52;;;;;;;17.12;13.75;;;23.70;55.30;;;;;;4813669;54;20812;-28
2022/09/18 13:37:06;;;;;;;17.83;13.77;;;23.70;55.30;;;;;;4807649;54;21529;-29
2022/09/18 13:42:07;;;;;;;16.75;12.88;;;23.60;55.30;;;;;;4794983;54;21277;-27
2022/09/18 13:47:13;;;;;;;15.32;13.20;;;23.60;55.20;;;;;;4839335;54;21935;-29
2022/09/18 13:59:17;;;;;;;16.95;13.38;;;23.60;55.20;;;;;;4804889;54;21154;-32
2022/09/18 14:05:00;;;;;;;16.30;13.18;;;23.70;55.10;;;;;;4803981;54;21027;-27
2022/09/18 14:10:17;;;;;;;14.32;12.63;;;23.60;54.90;;;;;;4797594;54;20996;-31
2022/09/18 14:15:25;;;;;;;16.30;12.70;;;23.60;55.00;;;;;;4797191;54;21032;-29
2022/09/18 14:20:25;;;;;;;16.67;13.27;;;23.60;54.90;;;;;;4799777;54;21027;-28
2022/09/18 14:25:46;;;;;;;15.35;12.70;;;23.60;54.90;;;;;;4798287;54;22269;-29
2022/09/18 14:31:16;;;;;;;14.55;11.90;;;23.60;54.60;;;;;;4807687;54;21047;-29
2022/09/18 14:36:17;;;;;;;17.40;12.93;;;23.60;54.70;;;;;;4819691;54;21027;-30
2022/09/18 14:41:25;;;;;;;17.33;12.82;;;23.70;54.80;;;;;;4838315;54;21044;-31
2022/09/18 14:46:27;;;;;;;16.90;12.80;;;23.60;54.60;;;;;;4795157;58;21134;-31
2022/09/18 14:51:31;;;;;;;16.17;12.75;;;23.60;54.60;;;;;;4809222;54;21521;-27
2022/09/18 14:56:34;;;;;;;15.82;12.40;;;23.60;54.70;;;;;;4823764;54;21035;-31
2022/09/18 15:01:38;;;;;;;16.62;13.05;;;23.60;54.50;;;;;;4836341;54;21015;-27
2022/09/18 15:06:53;;;;;;;14.70;12.63;;;23.60;54.60;;;;;;4795076;58;21580;-28
2022/09/18 15:11:54;;;;;;;14.30;11.75;;;23.60;54.50;;;;;;4797309;54;21094;-27
2022/09/18 15:16:57;;;;;;;15.63;12.50;;;23.70;54.50;;;;;;4796091;58;21128;-31
2022/09/18 15:21:59;;;;;;;15.80;12.60;;;23.60;54.50;;;;;;4811370;54;21541;-32
2022/09/18 15:27:03;;;;;;;14.85;12.05;;;23.60;54.50;;;;;;4812932;54;21008;-31
2022/09/18 15:32:04;;;;;;;14.18;11.90;;;23.70;54.50;;;;;;4799717;54;21004;-29
2022/09/18 15:37:05;;;;;;;14.27;12.10;;;23.60;54.50;;;;;;4817127;54;21071;-29
2022/09/18 15:42:49;;;;;;;13.23;11.80;;;23.60;54.30;;;;;;4820371;54;21533;-31
2022/09/18 15:47:51;;;;;;;15.68;12.10;;;23.60;55.10;;;;;;4795223;55;21146;-35
2022/09/18 15:53:18;;;;;;;14.70;12.02;;;23.60;54.40;;;;;;4801585;54;21067;-31
2022/09/18 15:58:49;;;;;;;14.95;12.25;;;23.60;54.40;;;;;;4821841;54;22565;-31
2022/09/18 16:04:03;;;;;;;14.40;12.10;;;23.60;54.40;;;;;;4795467;58;21068;-34
2022/09/18 16:09:04;;;;;;;14.38;11.60;;;23.60;54.40;;;;;;4811460;54;21043;-31
2022/09/18 16:15:26;;;;;;;14.20;11.93;;;23.60;54.30;;;;;;4795298;54;21019;-28
2022/09/18 16:21:03;;;;;;;14.65;11.80;;;23.60;54.30;;;;;;4794377;58;21000;-32
2022/09/18 16:26:10;;;;;;;14.70;11.82;;;23.60;54.30;;;;;;4847800;54;21064;-31
2022/09/18 16:31:13;;;;;;;14.63;11.82;;;23.60;54.20;;;;;;4820609;54;21529;-30
2022/09/18 16:36:26;;;;;;;13.98;11.07;;;23.60;54.20;;;;;;4808721;54;21012;-29
2022/09/18 16:41:28;;;;;;;13.80;11.32;;;23.60;54.20;;;;;;4798811;54;21477;-29
2022/09/18 16:46:57;;;;;;;14.60;12.10;;;23.60;54.20;;;;;;4796058;58;21028;-32
2022/09/18 16:52:01;;;;;;;13.52;11.45;;;23.60;54.10;;;;;;4800930;54;21016;-29
2022/09/18 16:57:08;;;;;;;14.63;12.18;;;23.60;54.10;;;;;;4796077;54;21012;-28
2022/09/18 17:02:12;;;;;;;13.62;11.35;;;23.60;54.20;;;;;;4795629;54;21011;-31
2022/09/18 17:07:13;;;;;;;15.15;11.68;;;23.60;54.20;;;;;;4857469;54;21189;-29
2022/09/18 17:12:13;;;;;;;13.65;11.38;;;23.60;54.20;;;;;;4812750;54;21063;-28
2022/09/18 17:17:14;;;;;;;14.43;11.68;;;23.60;54.20;;;;;;4801713;54;21501;-34
2022/09/18 17:22:15;;;;;;;14.35;11.45;;;23.60;54.10;;;;;;4825888;54;21585;-34
2022/09/18 17:27:16;;;;;;;14.57;11.65;;;23.60;54.10;;;;;;4805826;54;21000;-27
2022/09/18 17:32:17;;;;;;;13.93;11.80;;;23.60;54.20;;;;;;4802445;54;21040;-30
2022/09/18 17:37:18;;;;;;;13.15;11.75;;;23.60;54.10;;;;;;4804378;54;21012;-30
2022/09/18 17:42:21;;;;;;;14.90;12.77;;;23.60;54.20;;;;;;4802140;54;21498;-30
2022/09/18 17:47:22;;;;;;;12.65;10.93;;;23.60;54.10;;;;;;4808884;54;21584;-29
2022/09/18 17:52:23;;;;;;;14.30;12.00;;;23.60;54.10;;;;;;4809287;54;21095;-30
2022/09/18 17:57:24;;;;;;;14.10;11.40;;;23.60;54.10;;;;;;4800116;54;21067;-32
2022/09/18 18:02:25;;;;;;;13.30;11.35;;;23.60;54.10;;;;;;4798908;54;21008;-31
2022/09/18 18:07:26;;;;;;;14.02;12.02;;;23.60;54.20;;;;;;4795766;58;20999;-31
2022/09/18 18:12:27;;;;;;;14.57;11.65;;;23.60;54.10;;;;;;4826938;54;21530;-28
2022/09/18 18:17:30;;;;;;;13.38;11.52;;;23.50;54.10;;;;;;4861054;54;21043;-30
2022/09/18 18:22:31;;;;;;;14.77;12.10;;;23.60;54.20;;;;;;4805550;54;21479;-32
2022/09/18 18:27:32;;;;;;;14.10;12.25;;;23.50;54.60;;;;;;4811957;54;21016;-28
2022/09/18 18:32:33;;;;;;;12.95;11.45;;;23.50;54.10;;;;;;4798796;54;21023;-30
2022/09/18 18:37:34;;;;;;;14.38;11.57;;;23.50;53.90;;;;;;4798464;54;21473;-32
2022/09/18 18:42:35;;;;;;;13.65;11.07;;;23.60;54.20;;;;;;4800075;54;21059;-29
2022/09/18 18:47:39;;;;;;;13.00;10.98;;;23.60;54.20;;;;;;4795310;58;20996;-28
2022/09/18 18:52:42;;;;;;;13.30;11.40;;;23.50;54.00;;;;;;4795925;54;21044;-30
2022/09/18 18:57:43;;;;;;;13.30;11.43;;;23.50;54.00;;;;;;4842589;54;21028;-31
2022/09/18 19:02:47;;;;;;;13.82;11.10;;;23.50;54.00;;;;;;4817397;54;21012;-29
2022/09/18 19:07:49;;;;;;;14.43;11.40;;;23.50;54.00;;;;;;4840262;54;22339;-30
2022/09/18 19:12:56;;;;;;;12.37;10.88;;;23.50;54.00;;;;;;4809364;54;21498;-32
2022/09/18 19:18:01;;;;;;;13.48;11.57;;;23.50;54.10;;;;;;4802483;54;21564;-27
2022/09/18 19:23:01;;;;;;;14.18;10.98;;;23.50;54.00;;;;;;4848264;54;21486;-32
2022/09/18 19:28:02;;;;;;;12.37;10.85;;;23.50;54.10;;;;;;4797541;54;21035;-29
2022/09/18 19:33:04;;;;;;;14.38;11.55;;;23.50;54.00;;;;;;4811312;54;21032;-29
2022/09/18 19:38:05;;;;;;;12.32;10.45;;;23.50;54.10;;;;;;4797841;54;21087;-28
2022/09/18 19:43:11;;;;;;;13.13;10.52;;;23.50;53.90;;;;;;4797122;54;21071;-29
2022/09/18 19:48:22;;;;;;;14.13;11.80;;;23.50;54.00;;;;;;4798965;54;21024;-27
2022/09/18 19:53:23;;;;;;;12.48;11.18;;;23.50;54.00;;;;;;4794330;58;21095;-30
2022/09/18 19:58:24;;;;;;;14.05;11.65;;;23.50;54.00;;;;;;4797079;54;21047;-33
2022/09/18 20:03:25;;;;;;;13.05;11.07;;;23.50;54.00;;;;;;4823446;54;21985;-31
2022/09/18 20:08:29;;;;;;;13.25;11.30;;;23.50;54.00;;;;;;4795314;58;20992;-32
2022/09/18 20:13:29;;;;;;;13.60;10.75;;;23.50;54.00;;;;;;4797876;54;21083;-35
2022/09/18 20:18:32;;;;;;;13.55;11.52;;;23.50;54.10;;;;;;4811891;54;20996;-27
2022/09/18 20:23:34;;;;;;;13.10;11.50;;;23.50;54.00;;;;;;4796272;58;22328;-27
2022/09/18 20:28:35;;;;;;;12.30;10.90;;;23.50;54.00;;;;;;4808545;54;21003;-32
2022/09/18 20:33:37;;;;;;;13.07;10.80;;;23.50;53.90;;;;;;4795538;58;21003;-28
2022/09/18 20:38:39;;;;;;;13.43;11.80;;;23.50;53.90;;;;;;4817619;54;21015;-32
2022/09/18 20:43:42;;;;;;;12.57;11.00;;;23.50;54.00;;;;;;4814548;54;21103;-31
2022/09/18 20:48:53;;;;;;;13.68;11.80;;;23.50;54.00;;;;;;4812898;54;21718;-26
2022/09/18 20:53:56;;;;;;;13.43;11.65;;;23.50;53.90;;;;;;4798114;54;21008;-34
2022/09/18 20:58:57;;;;;;;13.23;11.68;;;23.50;53.90;;;;;;4817385;54;20980;-29
2022/09/18 21:04:00;;;;;;;13.38;11.02;;;23.50;54.00;;;;;;4795898;58;20988;-31
2022/09/18 21:09:08;;;;;;;13.82;11.27;;;23.50;54.00;;;;;;4818572;54;20995;-31
2022/09/18 21:14:11;;;;;;;12.15;10.85;;;23.50;54.00;;;;;;4819860;54;20980;-31
2022/09/18 21:19:15;;;;;;;13.15;11.40;;;23.50;53.90;;;;;;4805030;54;21032;-28
2022/09/18 21:24:16;;;;;;;13.30;11.60;;;23.50;53.90;;;;;;4824456;54;21051;-31
2022/09/18 21:29:28;;;;;;;11.70;10.07;;;23.40;53.90;;;;;;4796019;54;21063;-31
2022/09/18 21:34:32;;;;;;;12.90;11.35;;;23.40;53.90;;;;;;4798205;54;21562;-29
2022/09/18 21:39:34;;;;;;;13.60;12.15;;;23.40;54.40;;;;;;4809065;54;21076;-27
2022/09/18 21:44:36;;;;;;;13.38;11.18;;;23.40;54.10;;;;;;4822369;54;21004;-31
2022/09/18 21:49:37;;;;;;;11.85;10.32;;;23.50;54.00;;;;;;4820856;54;21600;-30
2022/09/18 21:54:38;;;;;;;11.82;10.50;;;23.40;54.00;;;;;;4798199;54;21083;-34
2022/09/18 21:59:39;;;;;;;11.18;9.63;;;23.40;54.10;;;;;;4795655;55;21020;-33
2022/09/18 22:04:42;;;;;;;11.38;10.07;;;23.40;54.00;;;;;;4800313;54;21028;-32
2022/09/18 22:09:43;;;;;;;12.18;10.77;;;23.40;54.10;;;;;;4820622;54;21016;-32
2022/09/18 22:14:44;;;;;;;13.10;10.20;;;23.40;54.00;;;;;;4834792;54;21059;-30
2022/09/18 22:19:45;;;;;;;11.30;10.10;;;23.40;54.00;;;;;;4821616;54;21110;-31
2022/09/18 22:24:46;;;;;;;13.20;10.15;;;23.40;54.10;;;;;;4810297;54;20988;-32
2022/09/18 22:29:47;;;;;;;11.93;10.57;;;23.40;54.10;;;;;;4796935;54;21012;-27
2022/09/18 22:34:49;;;;;;;12.20;10.23;;;23.40;54.00;;;;;;4797307;54;20999;-33
2022/09/18 22:39:50;;;;;;;12.63;10.35;;;23.40;54.10;;;;;;4794812;58;21112;-32
2022/09/18 22:44:51;;;;;;;10.45;9.35;;;23.40;54.10;;;;;;4795624;58;21328;-33
2022/09/18 22:49:52;;;;;;;11.52;9.75;;;23.40;54.20;;;;;;4804536;54;21079;-28
2022/09/18 22:54:53;;;;;;;11.43;9.48;;;23.40;54.10;;;;;;4808113;54;21028;-31
2022/09/18 22:59:54;;;;;;;11.15;9.93;;;23.40;54.10;;;;;;4797184;54;21043;-34
2022/09/18 23:04:55;;;;;;;11.48;9.80;;;23.40;54.10;;;;;;4795533;54;21103;-34
2022/09/18 23:09:56;;;;;;;11.50;8.93;;;23.40;54.10;;;;;;4798502;54;21463;-37
2022/09/18 23:14:56;;;;;;;13.20;10.20;;;23.40;54.20;;;;;;4797932;54;21004;-33
2022/09/18 23:19:57;;;;;;;11.82;9.30;;;23.40;54.10;;;;;;4797924;54;21024;-32
2022/09/18 23:24:58;;;;;;;12.93;9.45;;;23.40;54.20;;;;;;4868093;54;21014;-28
2022/09/18 23:29:59;;;;;;;10.55;9.25;;;23.40;54.10;;;;;;4800582;54;21003;-27
2022/09/18 23:35:00;;;;;;;10.15;8.98;;;23.40;54.00;;;;;;4819098;54;21498;-31
2022/09/18 23:40:01;;;;;;;10.13;8.50;;;23.40;54.20;;;;;;4800143;54;21032;-27
2022/09/18 23:45:02;;;;;;;10.30;8.77;;;23.40;54.10;;;;;;4809693;54;21497;-28
2022/09/18 23:50:03;;;;;;;10.55;9.45;;;23.40;54.10;;;;;;4808104;54;21007;-33
2022/09/18 23:55:04;;;;;;;10.70;8.63;;;23.40;54.10;;;;;;4826153;54;21008;-32
